sensor_id;sensor_type;location;lat;lon;timestamp;P1;durP1;ratioP1;P2;durP2;ratioP2
11823;SDS011;5969;50.780;7.726;2023-03-01T00:01:01;9.73;;;7.57;;
11823;SDS011;5969;50.780;7.726;2023-03-01T00:03:29;8.68;;;7.15;;
11823;SDS011;5969;50.780;7.726;2023-03-01T00:05:56;12.07;;;8.05;;
11823;SDS011;5969;50.780;7.726;2023-03-01T00:08:23;11.23;;;8.10;;
11823;SDS011;5969;50.780;7.726;2023-03-01T00:11:00;9.93;;;7.53;;
11823;SDS011;5969;50.780;7.726;2023-03-01T00:13:28;10.93;;;8.23;;
11823;SDS011;5969;50.780;7.726;2023-03-01T00:15:55;9.75;;;7.78;;
11823;SDS011;5969;50.780;7.726;2023-03-01T00:18:22;11.48;;;8.68;;
11823;SDS011;5969;50.780;7.726;2023-03-01T00:20:49;11.90;;;8.90;;
11823;SDS011;5969;50.780;7.726;2023-03-01T00:23:17;12.10;;;8.25;;
11823;SDS011;5969;50.780;7.726;2023-03-01T00:25:44;9.43;;;7.35;;
11823;SDS011;5969;50.780;7.726;2023-03-01T00:28:12;9.50;;;6.45;;
11823;SDS011;5969;50.780;7.726;2023-03-01T00:30:39;7.15;;;5.85;;
11823;SDS011;5969;50.780;7.726;2023-03-01T00:33:05;10.52;;;7.85;;
11823;SDS011;5969;50.780;7.726;2023-03-01T00:35:32;9.98;;;7.15;;
11823;SDS011;5969;50.780;7.726;2023-03-01T00:37:59;8.63;;;7.10;;
11823;SDS011;5969;50.780;7.726;2023-03-01T00:40:27;10.35;;;7.70;;
11823;SDS011;5969;50.780;7.726;2023-03-01T00:42:54;9.60;;;6.68;;
11823;SDS011;5969;50.780;7.726;2023-03-01T00:45:23;10.07;;;7.03;;
11823;SDS011;5969;50.780;7.726;2023-03-01T00:47:50;9.50;;;6.68;;
11823;SDS011;5969;50.780;7.726;2023-03-01T00:50:17;9.45;;;7.53;;
11823;SDS011;5969;50.780;7.726;2023-03-01T00:52:45;10.55;;;7.55;;
11823;SDS011;5969;50.780;7.726;2023-03-01T00:55:11;12.18;;;8.00;;
11823;SDS011;5969;50.780;7.726;2023-03-01T00:57:38;11.70;;;8.18;;
11823;SDS011;5969;50.780;7.726;2023-03-01T01:00:06;11.40;;;7.65;;
11823;SDS011;5969;50.780;7.726;2023-03-01T01:02:36;10.48;;;7.43;;
11823;SDS011;5969;50.780;7.726;2023-03-01T01:05:03;8.93;;;7.22;;
11823;SDS011;5969;50.780;7.726;2023-03-01T01:07:30;10.07;;;7.47;;
11823;SDS011;5969;50.780;7.726;2023-03-01T01:09:59;8.93;;;7.05;;
11823;SDS011;5969;50.780;7.726;2023-03-01T01:12:26;13.63;;;8.15;;
11823;SDS011;5969;50.780;7.726;2023-03-01T01:14:52;10.50;;;7.82;;
11823;SDS011;5969;50.780;7.726;2023-03-01T01:17:19;9.48;;;7.65;;
11823;SDS011;5969;50.780;7.726;2023-03-01T01:19:47;12.77;;;8.65;;
11823;SDS011;5969;50.780;7.726;2023-03-01T01:22:14;9.60;;;7.43;;
11823;SDS011;5969;50.780;7.726;2023-03-01T01:24:41;10.35;;;8.13;;
11823;SDS011;5969;50.780;7.726;2023-03-01T01:27:08;10.40;;;7.85;;
11823;SDS011;5969;50.780;7.726;2023-03-01T01:29:35;9.73;;;7.65;;
11823;SDS011;5969;50.780;7.726;2023-03-01T01:32:02;9.35;;;7.95;;
11823;SDS011;5969;50.780;7.726;2023-03-01T01:34:29;11.18;;;7.97;;
11823;SDS011;5969;50.780;7.726;2023-03-01T01:36:58;9.40;;;7.75;;
11823;SDS011;5969;50.780;7.726;2023-03-01T01:39:27;10.00;;;7.53;;
11823;SDS011;5969;50.780;7.726;2023-03-01T01:41:54;10.55;;;7.25;;
11823;SDS011;5969;50.780;7.726;2023-03-01T01:44:22;9.70;;;7.78;;
11823;SDS011;5969;50.780;7.726;2023-03-01T01:46:50;11.55;;;8.30;;
11823;SDS011;5969;50.780;7.726;2023-03-01T01:49:24;9.93;;;7.25;;
11823;SDS011;5969;50.780;7.726;2023-03-01T01:51:56;10.43;;;7.18;;
11823;SDS011;5969;50.780;7.726;2023-03-01T01:54:31;10.43;;;7.32;;
11823;SDS011;5969;50.780;7.726;2023-03-01T01:57:06;10.45;;;7.70;;
11823;SDS011;5969;50.780;7.726;2023-03-01T01:59:37;10.63;;;7.45;;
11823;SDS011;5969;50.780;7.726;2023-03-01T02:02:05;10.68;;;8.13;;
11823;SDS011;5969;50.780;7.726;2023-03-01T02:04:33;9.93;;;7.40;;
11823;SDS011;5969;50.780;7.726;2023-03-01T02:07:03;11.52;;;8.02;;
11823;SDS011;5969;50.780;7.726;2023-03-01T02:09:35;10.45;;;8.52;;
11823;SDS011;5969;50.780;7.726;2023-03-01T02:12:02;10.43;;;7.88;;
11823;SDS011;5969;50.780;7.726;2023-03-01T02:14:30;10.80;;;7.95;;
11823;SDS011;5969;50.780;7.726;2023-03-01T02:16:57;9.85;;;8.15;;
11823;SDS011;5969;50.780;7.726;2023-03-01T02:19:27;10.85;;;7.97;;
11823;SDS011;5969;50.780;7.726;2023-03-01T02:22:10;12.45;;;8.55;;
11823;SDS011;5969;50.780;7.726;2023-03-01T02:24:45;9.75;;;8.07;;
11823;SDS011;5969;50.780;7.726;2023-03-01T02:27:23;9.95;;;7.95;;
11823;SDS011;5969;50.780;7.726;2023-03-01T02:29:59;12.98;;;8.82;;
11823;SDS011;5969;50.780;7.726;2023-03-01T02:32:26;13.15;;;8.32;;
11823;SDS011;5969;50.780;7.726;2023-03-01T02:34:52;12.60;;;9.02;;
11823;SDS011;5969;50.780;7.726;2023-03-01T02:37:19;11.30;;;8.80;;
11823;SDS011;5969;50.780;7.726;2023-03-01T02:39:50;12.85;;;8.90;;
11823;SDS011;5969;50.780;7.726;2023-03-01T02:42:23;10.20;;;8.52;;
11823;SDS011;5969;50.780;7.726;2023-03-01T02:44:54;10.00;;;8.20;;
11823;SDS011;5969;50.780;7.726;2023-03-01T02:47:22;12.13;;;9.63;;
11823;SDS011;5969;50.780;7.726;2023-03-01T02:49:49;10.80;;;9.63;;
11823;SDS011;5969;50.780;7.726;2023-03-01T02:52:19;12.18;;;9.13;;
11823;SDS011;5969;50.780;7.726;2023-03-01T02:55:04;10.30;;;8.57;;
11823;SDS011;5969;50.780;7.726;2023-03-01T02:57:34;13.80;;;9.73;;
11823;SDS011;5969;50.780;7.726;2023-03-01T03:00:05;12.90;;;9.52;;
11823;SDS011;5969;50.780;7.726;2023-03-01T03:02:35;11.73;;;9.88;;
11823;SDS011;5969;50.780;7.726;2023-03-01T03:05:04;12.40;;;9.48;;
11823;SDS011;5969;50.780;7.726;2023-03-01T03:07:33;9.75;;;7.28;;
11823;SDS011;5969;50.780;7.726;2023-03-01T03:10:01;11.32;;;8.20;;
11823;SDS011;5969;50.780;7.726;2023-03-01T03:12:29;15.27;;;8.70;;
11823;SDS011;5969;50.780;7.726;2023-03-01T03:14:55;10.32;;;8.15;;
11823;SDS011;5969;50.780;7.726;2023-03-01T03:17:22;11.25;;;7.85;;
11823;SDS011;5969;50.780;7.726;2023-03-01T03:19:50;9.20;;;8.18;;
11823;SDS011;5969;50.780;7.726;2023-03-01T03:22:17;12.98;;;9.38;;
11823;SDS011;5969;50.780;7.726;2023-03-01T03:24:44;13.65;;;9.48;;
11823;SDS011;5969;50.780;7.726;2023-03-01T03:27:11;12.50;;;9.57;;
11823;SDS011;5969;50.780;7.726;2023-03-01T03:29:37;14.35;;;9.90;;
11823;SDS011;5969;50.780;7.726;2023-03-01T03:32:04;10.98;;;8.63;;
11823;SDS011;5969;50.780;7.726;2023-03-01T03:34:32;13.05;;;9.00;;
11823;SDS011;5969;50.780;7.726;2023-03-01T03:37:00;13.60;;;9.25;;
11823;SDS011;5969;50.780;7.726;2023-03-01T03:39:27;12.13;;;9.15;;
11823;SDS011;5969;50.780;7.726;2023-03-01T03:41:59;10.75;;;9.13;;
11823;SDS011;5969;50.780;7.726;2023-03-01T03:44:26;10.77;;;9.13;;
11823;SDS011;5969;50.780;7.726;2023-03-01T03:46:53;12.48;;;9.23;;
11823;SDS011;5969;50.780;7.726;2023-03-01T03:49:20;13.27;;;9.82;;
11823;SDS011;5969;50.780;7.726;2023-03-01T03:51:46;13.35;;;9.30;;
11823;SDS011;5969;50.780;7.726;2023-03-01T03:54:14;12.20;;;8.75;;
11823;SDS011;5969;50.780;7.726;2023-03-01T03:56:42;12.20;;;9.27;;
11823;SDS011;5969;50.780;7.726;2023-03-01T03:59:09;13.43;;;10.23;;
11823;SDS011;5969;50.780;7.726;2023-03-01T04:01:36;12.70;;;9.52;;
11823;SDS011;5969;50.780;7.726;2023-03-01T04:04:03;14.38;;;9.50;;
11823;SDS011;5969;50.780;7.726;2023-03-01T04:06:30;11.85;;;9.48;;
11823;SDS011;5969;50.780;7.726;2023-03-01T04:08:57;11.23;;;9.23;;
11823;SDS011;5969;50.780;7.726;2023-03-01T04:11:27;14.18;;;10.25;;
11823;SDS011;5969;50.780;7.726;2023-03-01T04:13:54;14.50;;;10.02;;
11823;SDS011;5969;50.780;7.726;2023-03-01T04:16:24;11.57;;;9.07;;
11823;SDS011;5969;50.780;7.726;2023-03-01T04:18:51;14.57;;;9.70;;
11823;SDS011;5969;50.780;7.726;2023-03-01T04:21:19;13.57;;;9.98;;
11823;SDS011;5969;50.780;7.726;2023-03-01T04:23:46;12.40;;;9.75;;
11823;SDS011;5969;50.780;7.726;2023-03-01T04:26:17;12.40;;;9.32;;
11823;SDS011;5969;50.780;7.726;2023-03-01T04:28:46;13.93;;;9.48;;
11823;SDS011;5969;50.780;7.726;2023-03-01T04:31:15;13.23;;;9.90;;
11823;SDS011;5969;50.780;7.726;2023-03-01T04:33:46;12.73;;;9.52;;
11823;SDS011;5969;50.780;7.726;2023-03-01T04:36:14;14.40;;;9.48;;
11823;SDS011;5969;50.780;7.726;2023-03-01T04:38:42;14.25;;;10.00;;
11823;SDS011;5969;50.780;7.726;2023-03-01T04:41:12;12.75;;;9.25;;
11823;SDS011;5969;50.780;7.726;2023-03-01T04:43:40;12.63;;;9.95;;
11823;SDS011;5969;50.780;7.726;2023-03-01T04:46:09;12.13;;;9.95;;
11823;SDS011;5969;50.780;7.726;2023-03-01T04:48:38;11.90;;;9.07;;
11823;SDS011;5969;50.780;7.726;2023-03-01T04:51:06;14.43;;;10.20;;
11823;SDS011;5969;50.780;7.726;2023-03-01T04:53:33;11.52;;;9.23;;
11823;SDS011;5969;50.780;7.726;2023-03-01T04:56:01;13.80;;;9.93;;
11823;SDS011;5969;50.780;7.726;2023-03-01T04:58:28;12.45;;;9.50;;
11823;SDS011;5969;50.780;7.726;2023-03-01T05:00:55;12.52;;;9.23;;
11823;SDS011;5969;50.780;7.726;2023-03-01T05:03:23;14.18;;;9.50;;
11823;SDS011;5969;50.780;7.726;2023-03-01T05:05:51;12.88;;;9.75;;
11823;SDS011;5969;50.780;7.726;2023-03-01T05:08:19;13.23;;;9.57;;
11823;SDS011;5969;50.780;7.726;2023-03-01T05:10:47;12.43;;;9.70;;
11823;SDS011;5969;50.780;7.726;2023-03-01T05:13:15;12.02;;;9.07;;
11823;SDS011;5969;50.780;7.726;2023-03-01T05:15:46;14.23;;;10.10;;
11823;SDS011;5969;50.780;7.726;2023-03-01T05:18:14;12.18;;;10.02;;
11823;SDS011;5969;50.780;7.726;2023-03-01T05:20:42;13.55;;;9.98;;
11823;SDS011;5969;50.780;7.726;2023-03-01T05:23:09;10.32;;;9.10;;
11823;SDS011;5969;50.780;7.726;2023-03-01T05:25:36;14.02;;;10.43;;
11823;SDS011;5969;50.780;7.726;2023-03-01T05:28:06;12.73;;;9.32;;
11823;SDS011;5969;50.780;7.726;2023-03-01T05:30:36;12.85;;;9.55;;
11823;SDS011;5969;50.780;7.726;2023-03-01T05:33:04;12.95;;;8.95;;
11823;SDS011;5969;50.780;7.726;2023-03-01T05:35:38;14.52;;;10.10;;
11823;SDS011;5969;50.780;7.726;2023-03-01T05:38:06;16.23;;;10.48;;
11823;SDS011;5969;50.780;7.726;2023-03-01T05:40:33;13.25;;;9.95;;
11823;SDS011;5969;50.780;7.726;2023-03-01T05:43:00;14.20;;;10.32;;
11823;SDS011;5969;50.780;7.726;2023-03-01T05:45:30;15.68;;;10.23;;
11823;SDS011;5969;50.780;7.726;2023-03-01T05:47:58;14.27;;;10.27;;
11823;SDS011;5969;50.780;7.726;2023-03-01T05:50:26;14.15;;;10.43;;
11823;SDS011;5969;50.780;7.726;2023-03-01T05:52:56;17.05;;;10.38;;
11823;SDS011;5969;50.780;7.726;2023-03-01T05:55:26;14.07;;;10.18;;
11823;SDS011;5969;50.780;7.726;2023-03-01T05:57:54;15.00;;;10.35;;
11823;SDS011;5969;50.780;7.726;2023-03-01T06:00:23;15.32;;;10.63;;
11823;SDS011;5969;50.780;7.726;2023-03-01T06:02:50;17.20;;;10.40;;
11823;SDS011;5969;50.780;7.726;2023-03-01T06:05:17;14.15;;;10.32;;
11823;SDS011;5969;50.780;7.726;2023-03-01T06:07:44;15.75;;;11.20;;
11823;SDS011;5969;50.780;7.726;2023-03-01T06:10:11;14.95;;;10.75;;
11823;SDS011;5969;50.780;7.726;2023-03-01T06:12:41;15.10;;;11.43;;
11823;SDS011;5969;50.780;7.726;2023-03-01T06:15:09;11.95;;;9.82;;
11823;SDS011;5969;50.780;7.726;2023-03-01T06:17:38;13.63;;;10.13;;
11823;SDS011;5969;50.780;7.726;2023-03-01T06:20:06;12.45;;;9.90;;
11823;SDS011;5969;50.780;7.726;2023-03-01T06:22:35;17.05;;;10.25;;
11823;SDS011;5969;50.780;7.726;2023-03-01T06:25:03;14.77;;;10.93;;
11823;SDS011;5969;50.780;7.726;2023-03-01T06:27:31;16.08;;;11.48;;
11823;SDS011;5969;50.780;7.726;2023-03-01T06:29:59;14.13;;;11.52;;
11823;SDS011;5969;50.780;7.726;2023-03-01T06:32:26;17.02;;;12.68;;
11823;SDS011;5969;50.780;7.726;2023-03-01T06:34:53;13.27;;;11.02;;
11823;SDS011;5969;50.780;7.726;2023-03-01T06:37:19;15.95;;;11.10;;
11823;SDS011;5969;50.780;7.726;2023-03-01T06:39:46;15.38;;;11.60;;
11823;SDS011;5969;50.780;7.726;2023-03-01T06:42:14;15.18;;;10.82;;
11823;SDS011;5969;50.780;7.726;2023-03-01T06:44:41;14.60;;;10.55;;
11823;SDS011;5969;50.780;7.726;2023-03-01T06:47:10;16.05;;;10.57;;
11823;SDS011;5969;50.780;7.726;2023-03-01T06:49:36;19.88;;;13.93;;
11823;SDS011;5969;50.780;7.726;2023-03-01T06:52:03;19.27;;;13.20;;
11823;SDS011;5969;50.780;7.726;2023-03-01T06:54:30;14.32;;;10.88;;
11823;SDS011;5969;50.780;7.726;2023-03-01T06:56:57;13.52;;;10.52;;
11823;SDS011;5969;50.780;7.726;2023-03-01T06:59:23;13.15;;;10.40;;
11823;SDS011;5969;50.780;7.726;2023-03-01T07:01:50;15.38;;;11.50;;
11823;SDS011;5969;50.780;7.726;2023-03-01T07:04:18;16.73;;;11.50;;
11823;SDS011;5969;50.780;7.726;2023-03-01T07:06:45;19.10;;;12.75;;
11823;SDS011;5969;50.780;7.726;2023-03-01T07:09:19;16.00;;;11.10;;
11823;SDS011;5969;50.780;7.726;2023-03-01T07:11:47;18.70;;;12.15;;
11823;SDS011;5969;50.780;7.726;2023-03-01T07:14:13;17.60;;;12.95;;
11823;SDS011;5969;50.780;7.726;2023-03-01T07:16:40;17.63;;;13.18;;
11823;SDS011;5969;50.780;7.726;2023-03-01T07:19:07;18.67;;;12.50;;
11823;SDS011;5969;50.780;7.726;2023-03-01T07:21:36;14.50;;;11.00;;
11823;SDS011;5969;50.780;7.726;2023-03-01T07:24:03;15.52;;;13.45;;
11823;SDS011;5969;50.780;7.726;2023-03-01T07:26:31;20.23;;;16.35;;
11823;SDS011;5969;50.780;7.726;2023-03-01T07:28:58;16.52;;;12.05;;
11823;SDS011;5969;50.780;7.726;2023-03-01T07:31:25;14.52;;;11.13;;
11823;SDS011;5969;50.780;7.726;2023-03-01T07:33:52;17.23;;;11.18;;
11823;SDS011;5969;50.780;7.726;2023-03-01T07:36:19;15.20;;;11.23;;
11823;SDS011;5969;50.780;7.726;2023-03-01T07:38:48;13.73;;;10.20;;
11823;SDS011;5969;50.780;7.726;2023-03-01T07:41:14;12.80;;;9.57;;
11823;SDS011;5969;50.780;7.726;2023-03-01T07:43:41;13.18;;;10.15;;
11823;SDS011;5969;50.780;7.726;2023-03-01T07:46:08;16.65;;;12.52;;
11823;SDS011;5969;50.780;7.726;2023-03-01T07:48:35;17.80;;;12.23;;
11823;SDS011;5969;50.780;7.726;2023-03-01T07:51:02;16.80;;;12.02;;
11823;SDS011;5969;50.780;7.726;2023-03-01T07:53:31;15.68;;;11.98;;
11823;SDS011;5969;50.780;7.726;2023-03-01T07:56:03;17.40;;;13.02;;
11823;SDS011;5969;50.780;7.726;2023-03-01T07:58:33;19.27;;;14.27;;
11823;SDS011;5969;50.780;7.726;2023-03-01T08:01:01;15.95;;;12.00;;
11823;SDS011;5969;50.780;7.726;2023-03-01T08:03:28;16.88;;;11.68;;
11823;SDS011;5969;50.780;7.726;2023-03-01T08:05:55;16.05;;;11.45;;
11823;SDS011;5969;50.780;7.726;2023-03-01T08:08:22;14.63;;;11.20;;
11823;SDS011;5969;50.780;7.726;2023-03-01T08:10:48;20.77;;;13.77;;
11823;SDS011;5969;50.780;7.726;2023-03-01T08:13:16;19.80;;;12.77;;
11823;SDS011;5969;50.780;7.726;2023-03-01T08:15:47;17.92;;;12.48;;
11823;SDS011;5969;50.780;7.726;2023-03-01T08:18:14;17.13;;;12.55;;
11823;SDS011;5969;50.780;7.726;2023-03-01T08:20:40;15.90;;;11.70;;
11823;SDS011;5969;50.780;7.726;2023-03-01T08:23:07;14.57;;;11.38;;
11823;SDS011;5969;50.780;7.726;2023-03-01T08:25:34;14.88;;;11.23;;
11823;SDS011;5969;50.780;7.726;2023-03-01T08:28:01;14.20;;;11.60;;
11823;SDS011;5969;50.780;7.726;2023-03-01T08:30:29;14.18;;;11.05;;
11823;SDS011;5969;50.780;7.726;2023-03-01T08:32:56;17.00;;;11.50;;
11823;SDS011;5969;50.780;7.726;2023-03-01T08:35:22;16.13;;;11.32;;
11823;SDS011;5969;50.780;7.726;2023-03-01T08:37:49;14.57;;;11.70;;
11823;SDS011;5969;50.780;7.726;2023-03-01T08:40:16;14.07;;;10.25;;
11823;SDS011;5969;50.780;7.726;2023-03-01T08:42:43;13.23;;;10.07;;
11823;SDS011;5969;50.780;7.726;2023-03-01T08:45:10;13.32;;;10.88;;
11823;SDS011;5969;50.780;7.726;2023-03-01T08:47:39;17.63;;;11.35;;
11823;SDS011;5969;50.780;7.726;2023-03-01T08:50:06;12.93;;;10.63;;
11823;SDS011;5969;50.780;7.726;2023-03-01T08:52:33;13.68;;;10.48;;
11823;SDS011;5969;50.780;7.726;2023-03-01T08:55:00;13.13;;;10.70;;
11823;SDS011;5969;50.780;7.726;2023-03-01T08:57:27;12.55;;;9.32;;
11823;SDS011;5969;50.780;7.726;2023-03-01T08:59:54;13.27;;;10.25;;
11823;SDS011;5969;50.780;7.726;2023-03-01T09:02:21;10.88;;;9.40;;
11823;SDS011;5969;50.780;7.726;2023-03-01T09:04:49;13.52;;;9.85;;
11823;SDS011;5969;50.780;7.726;2023-03-01T09:07:16;14.20;;;10.57;;
11823;SDS011;5969;50.780;7.726;2023-03-01T09:09:43;14.13;;;9.98;;
11823;SDS011;5969;50.780;7.726;2023-03-01T09:12:09;11.95;;;9.43;;
11823;SDS011;5969;50.780;7.726;2023-03-01T09:14:36;12.55;;;9.68;;
11823;SDS011;5969;50.780;7.726;2023-03-01T09:17:03;13.93;;;9.80;;
11823;SDS011;5969;50.780;7.726;2023-03-01T09:19:30;14.27;;;9.90;;
11823;SDS011;5969;50.780;7.726;2023-03-01T09:21:58;13.93;;;10.40;;
11823;SDS011;5969;50.780;7.726;2023-03-01T09:24:25;13.20;;;10.20;;
11823;SDS011;5969;50.780;7.726;2023-03-01T09:26:55;12.95;;;10.40;;
11823;SDS011;5969;50.780;7.726;2023-03-01T09:29:23;14.52;;;9.40;;
11823;SDS011;5969;50.780;7.726;2023-03-01T09:31:50;12.38;;;9.55;;
11823;SDS011;5969;50.780;7.726;2023-03-01T09:34:20;11.85;;;9.68;;
11823;SDS011;5969;50.780;7.726;2023-03-01T09:36:48;12.82;;;9.73;;
11823;SDS011;5969;50.780;7.726;2023-03-01T09:39:17;11.15;;;9.00;;
11823;SDS011;5969;50.780;7.726;2023-03-01T09:41:46;11.05;;;8.23;;
11823;SDS011;5969;50.780;7.726;2023-03-01T09:44:18;10.18;;;7.05;;
11823;SDS011;5969;50.780;7.726;2023-03-01T09:46:52;8.40;;;7.32;;
11823;SDS011;5969;50.780;7.726;2023-03-01T09:49:19;9.70;;;6.93;;
11823;SDS011;5969;50.780;7.726;2023-03-01T09:51:54;8.88;;;6.57;;
11823;SDS011;5969;50.780;7.726;2023-03-01T09:54:23;7.53;;;6.28;;
11823;SDS011;5969;50.780;7.726;2023-03-01T09:56:57;8.55;;;6.35;;
11823;SDS011;5969;50.780;7.726;2023-03-01T09:59:32;9.10;;;6.57;;
11823;SDS011;5969;50.780;7.726;2023-03-01T10:02:11;11.02;;;6.68;;
11823;SDS011;5969;50.780;7.726;2023-03-01T10:04:49;9.38;;;7.07;;
11823;SDS011;5969;50.780;7.726;2023-03-01T10:07:21;9.88;;;7.50;;
11823;SDS011;5969;50.780;7.726;2023-03-01T10:09:57;7.15;;;6.20;;
11823;SDS011;5969;50.780;7.726;2023-03-01T10:12:27;8.18;;;6.75;;
11823;SDS011;5969;50.780;7.726;2023-03-01T10:14:57;9.10;;;6.25;;
11823;SDS011;5969;50.780;7.726;2023-03-01T10:17:30;6.93;;;6.00;;
11823;SDS011;5969;50.780;7.726;2023-03-01T10:20:15;9.07;;;6.85;;
11823;SDS011;5969;50.780;7.726;2023-03-01T10:22:45;8.82;;;6.63;;
11823;SDS011;5969;50.780;7.726;2023-03-01T10:25:17;9.55;;;6.43;;
11823;SDS011;5969;50.780;7.726;2023-03-01T10:27:51;7.47;;;5.80;;
11823;SDS011;5969;50.780;7.726;2023-03-01T10:30:20;9.20;;;6.65;;
11823;SDS011;5969;50.780;7.726;2023-03-01T10:32:48;10.00;;;6.60;;
11823;SDS011;5969;50.780;7.726;2023-03-01T10:35:20;8.48;;;6.15;;
11823;SDS011;5969;50.780;7.726;2023-03-01T10:37:59;7.97;;;5.57;;
11823;SDS011;5969;50.780;7.726;2023-03-01T10:40:31;9.88;;;6.45;;
11823;SDS011;5969;50.780;7.726;2023-03-01T10:42:59;8.88;;;7.03;;
11823;SDS011;5969;50.780;7.726;2023-03-01T10:45:32;8.77;;;6.30;;
11823;SDS011;5969;50.780;7.726;2023-03-01T10:48:05;9.05;;;6.57;;
11823;SDS011;5969;50.780;7.726;2023-03-01T10:50:38;10.90;;;6.65;;
11823;SDS011;5969;50.780;7.726;2023-03-01T10:53:16;8.20;;;6.07;;
11823;SDS011;5969;50.780;7.726;2023-03-01T10:56:02;9.00;;;5.82;;
11823;SDS011;5969;50.780;7.726;2023-03-01T10:58:31;7.50;;;6.20;;
11823;SDS011;5969;50.780;7.726;2023-03-01T11:01:00;8.52;;;6.15;;
11823;SDS011;5969;50.780;7.726;2023-03-01T11:03:32;7.43;;;6.03;;
11823;SDS011;5969;50.780;7.726;2023-03-01T11:06:03;9.73;;;6.32;;
11823;SDS011;5969;50.780;7.726;2023-03-01T11:08:41;6.57;;;5.47;;
11823;SDS011;5969;50.780;7.726;2023-03-01T11:11:16;7.45;;;5.82;;
11823;SDS011;5969;50.780;7.726;2023-03-01T11:13:57;6.75;;;5.28;;
11823;SDS011;5969;50.780;7.726;2023-03-01T11:16:27;6.50;;;5.60;;
11823;SDS011;5969;50.780;7.726;2023-03-01T11:18:56;10.18;;;5.93;;
11823;SDS011;5969;50.780;7.726;2023-03-01T11:21:24;8.43;;;5.90;;
11823;SDS011;5969;50.780;7.726;2023-03-01T11:23:53;7.93;;;5.10;;
11823;SDS011;5969;50.780;7.726;2023-03-01T11:26:21;8.30;;;6.15;;
11823;SDS011;5969;50.780;7.726;2023-03-01T11:28:50;8.23;;;5.90;;
11823;SDS011;5969;50.780;7.726;2023-03-01T11:31:21;8.23;;;5.72;;
11823;SDS011;5969;50.780;7.726;2023-03-01T11:33:53;6.75;;;5.68;;
11823;SDS011;5969;50.780;7.726;2023-03-01T11:36:25;7.15;;;5.63;;
11823;SDS011;5969;50.780;7.726;2023-03-01T11:38:56;6.47;;;5.78;;
11823;SDS011;5969;50.780;7.726;2023-03-01T11:41:30;6.68;;;5.47;;
11823;SDS011;5969;50.780;7.726;2023-03-01T11:44:00;6.93;;;5.30;;
11823;SDS011;5969;50.780;7.726;2023-03-01T11:46:34;5.80;;;4.82;;
11823;SDS011;5969;50.780;7.726;2023-03-01T11:49:16;6.20;;;5.28;;
11823;SDS011;5969;50.780;7.726;2023-03-01T11:52:13;6.20;;;5.40;;
11823;SDS011;5969;50.780;7.726;2023-03-01T11:54:51;6.00;;;5.40;;
11823;SDS011;5969;50.780;7.726;2023-03-01T11:57:38;5.00;;;4.50;;
11823;SDS011;5969;50.780;7.726;2023-03-01T12:00:25;5.40;;;4.40;;
11823;SDS011;5969;50.780;7.726;2023-03-01T12:03:22;5.20;;;4.70;;
11823;SDS011;5969;50.780;7.726;2023-03-01T12:06:02;5.47;;;4.97;;
11823;SDS011;5969;50.780;7.726;2023-03-01T12:08:49;6.05;;;5.18;;
11823;SDS011;5969;50.780;7.726;2023-03-01T12:11:28;5.35;;;4.50;;
11823;SDS011;5969;50.780;7.726;2023-03-01T12:14:16;5.60;;;5.00;;
11823;SDS011;5969;50.780;7.726;2023-03-01T12:17:08;5.10;;;4.60;;
11823;SDS011;5969;50.780;7.726;2023-03-01T12:20:05;5.47;;;4.53;;
11823;SDS011;5969;50.780;7.726;2023-03-01T12:22:47;5.57;;;4.53;;
11823;SDS011;5969;50.780;7.726;2023-03-01T12:25:31;5.63;;;5.05;;
11823;SDS011;5969;50.780;7.726;2023-03-01T12:30:54;5.35;;;4.85;;
11823;SDS011;5969;50.780;7.726;2023-03-01T12:33:36;4.38;;;3.97;;
11823;SDS011;5969;50.780;7.726;2023-03-01T12:36:18;4.88;;;4.22;;
11823;SDS011;5969;50.780;7.726;2023-03-01T12:38:57;5.07;;;4.20;;
11823;SDS011;5969;50.780;7.726;2023-03-01T12:41:38;4.70;;;4.30;;
11823;SDS011;5969;50.780;7.726;2023-03-01T12:44:15;4.47;;;4.07;;
11823;SDS011;5969;50.780;7.726;2023-03-01T12:47:05;4.85;;;4.32;;
11823;SDS011;5969;50.780;7.726;2023-03-01T12:49:40;4.25;;;3.85;;
11823;SDS011;5969;50.780;7.726;2023-03-01T12:52:12;5.25;;;4.45;;
11823;SDS011;5969;50.780;7.726;2023-03-01T12:54:43;4.28;;;3.65;;
11823;SDS011;5969;50.780;7.726;2023-03-01T12:57:12;5.07;;;4.00;;
11823;SDS011;5969;50.780;7.726;2023-03-01T12:59:45;3.60;;;3.30;;
11823;SDS011;5969;50.780;7.726;2023-03-01T13:02:25;4.45;;;4.05;;
11823;SDS011;5969;50.780;7.726;2023-03-01T13:05:00;4.13;;;3.72;;
11823;SDS011;5969;50.780;7.726;2023-03-01T13:07:40;4.75;;;3.95;;
11823;SDS011;5969;50.780;7.726;2023-03-01T13:10:17;4.80;;;4.35;;
11823;SDS011;5969;50.780;7.726;2023-03-01T13:12:52;4.53;;;3.97;;
11823;SDS011;5969;50.780;7.726;2023-03-01T13:15:29;4.95;;;3.83;;
11823;SDS011;5969;50.780;7.726;2023-03-01T13:17:59;3.88;;;3.45;;
11823;SDS011;5969;50.780;7.726;2023-03-01T13:20:28;4.43;;;4.10;;
11823;SDS011;5969;50.780;7.726;2023-03-01T13:23:02;4.10;;;3.80;;
11823;SDS011;5969;50.780;7.726;2023-03-01T13:25:31;4.32;;;3.53;;
11823;SDS011;5969;50.780;7.726;2023-03-01T13:31:02;3.53;;;3.22;;
11823;SDS011;5969;50.780;7.726;2023-03-01T13:39:26;6.80;;;6.10;;
11823;SDS011;5969;50.780;7.726;2023-03-01T13:41:56;4.90;;;4.35;;
11823;SDS011;5969;50.780;7.726;2023-03-01T13:44:25;4.90;;;4.40;;
11823;SDS011;5969;50.780;7.726;2023-03-01T13:46:56;4.13;;;3.67;;
11823;SDS011;5969;50.780;7.726;2023-03-01T13:49:27;5.50;;;3.78;;
11823;SDS011;5969;50.780;7.726;2023-03-01T13:51:55;4.03;;;3.53;;
11823;SDS011;5969;50.780;7.726;2023-03-01T13:54:25;4.60;;;3.75;;
11823;SDS011;5969;50.780;7.726;2023-03-01T13:56:55;5.05;;;3.92;;
11823;SDS011;5969;50.780;7.726;2023-03-01T13:59:24;4.43;;;3.70;;
11823;SDS011;5969;50.780;7.726;2023-03-01T14:01:54;4.90;;;4.07;;
11823;SDS011;5969;50.780;7.726;2023-03-01T14:04:23;4.47;;;3.95;;
11823;SDS011;5969;50.780;7.726;2023-03-01T14:06:53;3.95;;;3.42;;
11823;SDS011;5969;50.780;7.726;2023-03-01T14:09:36;5.00;;;3.80;;
11823;SDS011;5969;50.780;7.726;2023-03-01T14:12:12;4.07;;;3.50;;
11823;SDS011;5969;50.780;7.726;2023-03-01T14:14:52;4.05;;;3.75;;
11823;SDS011;5969;50.780;7.726;2023-03-01T14:17:33;4.65;;;3.53;;
11823;SDS011;5969;50.780;7.726;2023-03-01T14:20:11;4.32;;;3.92;;
11823;SDS011;5969;50.780;7.726;2023-03-01T14:22:43;4.18;;;3.67;;
11823;SDS011;5969;50.780;7.726;2023-03-01T14:25:22;5.15;;;3.92;;
11823;SDS011;5969;50.780;7.726;2023-03-01T14:27:54;5.15;;;4.65;;
11823;SDS011;5969;50.780;7.726;2023-03-01T14:30:24;4.53;;;4.13;;
11823;SDS011;5969;50.780;7.726;2023-03-01T14:32:52;5.65;;;4.22;;
11823;SDS011;5969;50.780;7.726;2023-03-01T14:35:21;4.13;;;3.75;;
11823;SDS011;5969;50.780;7.726;2023-03-01T14:37:51;3.75;;;3.40;;
11823;SDS011;5969;50.780;7.726;2023-03-01T14:40:22;3.75;;;3.30;;
11823;SDS011;5969;50.780;7.726;2023-03-01T14:42:50;4.30;;;3.80;;
11823;SDS011;5969;50.780;7.726;2023-03-01T14:45:18;3.90;;;3.60;;
11823;SDS011;5969;50.780;7.726;2023-03-01T14:47:45;5.25;;;4.20;;
11823;SDS011;5969;50.780;7.726;2023-03-01T14:50:21;3.97;;;3.60;;
11823;SDS011;5969;50.780;7.726;2023-03-01T14:52:53;3.90;;;3.58;;
11823;SDS011;5969;50.780;7.726;2023-03-01T14:55:22;4.25;;;3.85;;
11823;SDS011;5969;50.780;7.726;2023-03-01T14:57:54;4.18;;;3.78;;
11823;SDS011;5969;50.780;7.726;2023-03-01T15:00:24;4.32;;;3.92;;
11823;SDS011;5969;50.780;7.726;2023-03-01T15:02:53;4.00;;;3.50;;
11823;SDS011;5969;50.780;7.726;2023-03-01T15:05:23;4.70;;;3.58;;
11823;SDS011;5969;50.780;7.726;2023-03-01T15:07:56;3.80;;;3.40;;
11823;SDS011;5969;50.780;7.726;2023-03-01T15:10:26;4.55;;;3.85;;
11823;SDS011;5969;50.780;7.726;2023-03-01T15:12:54;4.18;;;3.78;;
11823;SDS011;5969;50.780;7.726;2023-03-01T15:15:32;4.50;;;4.10;;
11823;SDS011;5969;50.780;7.726;2023-03-01T15:18:02;4.45;;;4.05;;
11823;SDS011;5969;50.780;7.726;2023-03-01T15:20:31;4.65;;;3.92;;